CheckWX is a tool to help pilots better visualize weather data.  It is not intended as a substitute for an official pre-flight weather briefing.

06:59:18 UTC

ENGM METAR
Oslo Gardermoen Airport
Oslo, Norway
Current

39 mins ago

ENGM 210620Z VRB02KT CAVOK 06/04 Q1017 NOSIG
Observed
Sep-21 @ 06:20 UTC
Wind
  • Variable at 2 KTS
Visibility
10,000+ meters
Flight Rules
VFR
Cloud Levels
  • Clear skies
Temperature
C / 43°F
Dewpoint
C / 39°F
Humidity
87%
Altimeter
30.03" Hg
Pressure
1016.92 hPa
Previous

1 hour ago

ENGM 210550Z 21002KT CAVOK 05/04 Q1017 NOSIG
Observed
Sep-21 @ 05:50 UTC
Wind
  • 210° at 2 KTS
Visibility
10,000+ meters
Flight Rules
VFR
Cloud Levels
  • Clear skies
Temperature
C / 41°F
Dewpoint
C / 39°F
Humidity
93%
Altimeter
30.03" Hg
Pressure
1016.92 hPa
Previous

2 hours ago

ENGM 210520Z 00000KT CAVOK 05/03 Q1017 NOSIG
Observed
Sep-21 @ 05:20 UTC
Visibility
10,000+ meters
Flight Rules
VFR
Cloud Levels
  • Clear skies
Temperature
C / 41°F
Dewpoint
C / 37°F
Humidity
87%
Altimeter
30.03" Hg
Pressure
1016.92 hPa